createdAt,value
2023-03-11T00:00:44.886Z,100.00
2023-03-11T00:03:16.211Z,100.00
2023-03-11T00:05:44.836Z,100.00
2023-03-11T00:08:18.025Z,100.00
2023-03-11T00:10:46.811Z,100.00
2023-03-11T00:13:15.905Z,100.00
2023-03-11T00:15:47.072Z,100.00
2023-03-11T00:18:14.662Z,100.00
2023-03-11T00:20:44.066Z,100.00
2023-03-11T00:23:11.502Z,100.00
2023-03-11T00:25:39.294Z,100.00
2023-03-11T00:28:11.178Z,100.00
2023-03-11T00:30:39.462Z,100.00
2023-03-11T00:33:07.937Z,100.00
2023-03-11T00:35:35.969Z,100.00
2023-03-11T00:38:06.292Z,100.00
2023-03-11T00:40:36.215Z,100.00
2023-03-11T00:43:04.069Z,100.00
2023-03-11T00:45:31.948Z,100.00
2023-03-11T00:47:58.843Z,100.00
2023-03-11T00:50:32.336Z,100.00
2023-03-11T00:53:00.001Z,100.00
2023-03-11T00:55:30.743Z,100.00
2023-03-11T00:58:01.729Z,100.00
2023-03-11T01:00:35.665Z,100.00
2023-03-11T01:03:03.618Z,100.00
2023-03-11T01:05:32.641Z,100.00
2023-03-11T01:08:00.683Z,100.00
2023-03-11T01:10:29.721Z,100.00
2023-03-11T01:12:56.759Z,100.00
2023-03-11T01:15:27.842Z,100.00
2023-03-11T01:17:54.784Z,100.00
2023-03-11T01:20:21.926Z,100.00
2023-03-11T01:22:49.263Z,100.00
2023-03-11T01:25:18.278Z,100.00
2023-03-11T01:27:45.427Z,100.00
2023-03-11T01:30:16.679Z,100.00
2023-03-11T01:32:44.084Z,100.00
2023-03-11T01:35:15.667Z,100.00
2023-03-11T01:37:42.839Z,100.00
2023-03-11T01:40:17.308Z,100.00
2023-03-11T01:42:44.679Z,100.00
2023-03-11T01:45:34.113Z,100.00
2023-03-11T01:48:01.618Z,100.00
2023-03-11T01:50:36.032Z,100.00
2023-03-11T01:53:05.870Z,100.00
2023-03-11T01:55:34.947Z,100.00
2023-03-11T01:58:07.564Z,100.00
2023-03-11T02:00:37.554Z,100.00
2023-03-11T02:03:11.744Z,100.00
2023-03-11T02:05:40.131Z,100.00
2023-03-11T02:08:09.402Z,100.00
2023-03-11T02:10:40.823Z,100.00
2023-03-11T02:13:08.072Z,100.00
2023-03-11T02:15:35.364Z,100.00
2023-03-11T02:18:05.322Z,100.00
2023-03-11T02:20:54.582Z,100.00
2023-03-11T02:23:28.199Z,100.00
2023-03-11T02:26:20.074Z,100.00
2023-03-11T02:28:49.201Z,100.00
2023-03-11T02:31:17.035Z,100.00
2023-03-11T02:33:46.968Z,100.00
2023-03-11T02:36:38.763Z,100.00
2023-03-11T02:39:09.970Z,100.00
2023-03-11T02:41:46.157Z,100.00
2023-03-11T02:44:16.382Z,100.00
2023-03-11T02:46:45.193Z,100.00
2023-03-11T02:49:14.826Z,100.00
2023-03-11T02:51:41.977Z,100.00
2023-03-11T02:54:09.016Z,100.00
2023-03-11T02:56:37.017Z,100.00
2023-03-11T02:59:03.946Z,100.00
2023-03-11T03:01:31.189Z,100.00
2023-03-11T03:03:59.108Z,98.86
2023-03-11T03:06:28.586Z,98.56
2023-03-11T03:08:56.746Z,97.53
2023-03-11T03:11:23.648Z,97.06
2023-03-11T03:13:50.550Z,95.66
2023-03-11T03:16:18.108Z,95.61
2023-03-11T03:18:45.200Z,95.89
2023-03-11T03:21:12.240Z,96.68
2023-03-11T03:23:39.537Z,97.45
2023-03-11T03:26:06.799Z,98.04
2023-03-11T03:28:37.180Z,98.47
2023-03-11T03:31:08.905Z,98.89
2023-03-11T03:33:38.297Z,98.32
2023-03-11T03:36:09.852Z,98.55
2023-03-11T03:38:43.172Z,98.84
2023-03-11T03:41:13.173Z,99.34
2023-03-11T03:43:41.285Z,99.55
2023-03-11T03:46:10.111Z,99.86
2023-03-11T03:48:43.793Z,100.00
2023-03-11T03:51:13.690Z,100.00
2023-03-11T03:53:56.989Z,100.00
2023-03-11T03:56:26.208Z,96.97
2023-03-11T03:58:53.763Z,94.16
2023-03-11T04:01:22.513Z,89.90
2023-03-11T04:03:49.518Z,88.12
2023-03-11T04:06:21.590Z,85.46
2023-03-11T04:08:54.674Z,84.41
2023-03-11T04:11:26.538Z,82.09
2023-03-11T04:13:54.865Z,81.36
2023-03-11T04:16:24.116Z,80.89
2023-03-11T04:18:54.982Z,79.89
2023-03-11T04:21:22.330Z,80.29
2023-03-11T04:23:49.873Z,79.38
2023-03-11T04:26:22.428Z,79.39
2023-03-11T04:28:49.597Z,80.05
2023-03-11T04:31:17.398Z,78.84
2023-03-11T04:33:44.341Z,77.43
2023-03-11T04:36:12.975Z,77.39
2023-03-11T04:38:40.131Z,77.14
2023-03-11T04:41:09.431Z,76.78
2023-03-11T04:43:39.140Z,75.87
2023-03-11T04:46:06.472Z,76.46
2023-03-11T04:48:34.263Z,77.04
2023-03-11T04:51:01.358Z,77.58
2023-03-11T04:53:29.521Z,76.45
2023-03-11T04:55:56.568Z,76.05
2023-03-11T04:58:23.620Z,76.29
2023-03-11T05:00:50.588Z,76.13
2023-03-11T05:03:17.735Z,75.64
2023-03-11T05:05:45.433Z,75.85
2023-03-11T05:08:12.762Z,75.45
2023-03-11T05:10:42.743Z,74.74
2023-03-11T05:13:10.453Z,74.52
2023-03-11T05:15:39.485Z,74.34
2023-03-11T05:18:07.732Z,73.96
2023-03-11T05:20:37.395Z,72.68
2023-03-11T05:23:05.309Z,72.54
2023-03-11T05:25:35.660Z,72.43
2023-03-11T05:28:04.096Z,72.77
2023-03-11T05:30:32.938Z,73.06
2023-03-11T05:33:00.090Z,72.42
2023-03-11T05:35:28.025Z,71.69
2023-03-11T05:37:56.019Z,71.55
2023-03-11T05:40:25.538Z,72.41
2023-03-11T05:42:52.744Z,71.77
2023-03-11T05:45:19.777Z,70.85
2023-03-11T05:47:49.339Z,71.48
2023-03-11T05:50:17.828Z,72.05
2023-03-11T05:52:46.481Z,71.98
2023-03-11T05:55:13.510Z,71.99
2023-03-11T05:57:42.816Z,71.28
2023-03-11T06:00:13.510Z,71.25
2023-03-11T06:02:42.102Z,72.42
2023-03-11T06:05:13.884Z,72.20
2023-03-11T06:07:43.341Z,71.87
2023-03-11T06:10:11.251Z,72.48
2023-03-11T06:12:39.642Z,72.07
2023-03-11T06:15:36.983Z,72.77
2023-03-11T06:18:04.968Z,73.01
2023-03-11T06:20:33.516Z,73.45
2023-03-11T06:23:00.528Z,74.16
2023-03-11T06:25:27.835Z,75.11
2023-03-11T06:27:55.143Z,75.56
2023-03-11T06:30:24.482Z,75.41
2023-03-11T06:32:58.877Z,76.24
2023-03-11T06:35:25.977Z,75.97
2023-03-11T06:37:52.867Z,76.47
2023-03-11T06:40:20.051Z,75.39
2023-03-11T06:42:50.086Z,75.42
2023-03-11T06:45:20.601Z,75.52
2023-03-11T06:47:49.026Z,75.00
2023-03-11T06:50:16.514Z,74.22
2023-03-11T06:52:43.747Z,74.43
2023-03-11T06:55:10.759Z,74.35
2023-03-11T06:57:37.880Z,73.43
2023-03-11T07:00:12.308Z,73.56
2023-03-11T07:02:41.424Z,73.75
2023-03-11T07:05:09.530Z,73.03
2023-03-11T07:07:36.482Z,73.04
2023-03-11T07:10:04.821Z,73.07
2023-03-11T07:12:31.820Z,73.32
2023-03-11T07:14:59.678Z,72.80
2023-03-11T07:17:28.265Z,73.07
2023-03-11T07:19:55.303Z,72.99
2023-03-11T07:22:22.204Z,72.83
2023-03-11T07:24:49.375Z,73.24
2023-03-11T07:27:16.509Z,71.59
2023-03-11T07:29:43.735Z,70.39
2023-03-11T07:32:10.759Z,70.74
2023-03-11T07:34:37.715Z,70.99
2023-03-11T07:37:04.840Z,70.68
2023-03-11T07:39:31.729Z,69.35
2023-03-11T07:41:59.011Z,68.93
2023-03-11T07:44:34.429Z,67.50
2023-03-11T07:47:06.131Z,68.79
2023-03-11T07:49:34.376Z,67.04
2023-03-11T07:52:01.377Z,67.00
2023-03-11T07:54:28.689Z,67.04
2023-03-11T07:56:55.672Z,67.31
2023-03-11T07:59:22.685Z,67.02
2023-03-11T08:01:50.676Z,67.63
2023-03-11T08:04:17.853Z,68.09
2023-03-11T08:06:47.032Z,67.25
2023-03-11T08:09:14.294Z,68.07
2023-03-11T08:11:41.327Z,67.81
2023-03-11T08:14:08.389Z,67.77
2023-03-11T08:16:35.342Z,67.56
2023-03-11T08:19:02.384Z,65.56
2023-03-11T08:21:32.162Z,64.52
2023-03-11T08:24:02.093Z,61.80
2023-03-11T08:26:30.353Z,62.21
2023-03-11T08:28:58.257Z,62.84
2023-03-11T08:31:29.479Z,60.35
2023-03-11T08:34:03.502Z,59.78
2023-03-11T08:36:31.479Z,57.46
2023-03-11T08:38:59.323Z,57.74
2023-03-11T08:41:27.585Z,58.20
2023-03-11T08:43:54.523Z,58.78
2023-03-11T08:46:25.392Z,58.82
2023-03-11T08:48:53.894Z,57.85
2023-03-11T08:51:22.784Z,57.39
2023-03-11T08:53:50.427Z,56.50
2023-03-11T08:56:17.940Z,55.02
2023-03-11T08:58:45.675Z,55.51
2023-03-11T09:01:13.695Z,54.92
2023-03-11T09:03:40.885Z,55.95
2023-03-11T09:06:13.767Z,56.63
2023-03-11T09:08:41.862Z,56.40
2023-03-11T09:11:09.673Z,55.70
2023-03-11T09:13:36.699Z,66.52
2023-03-11T09:16:05.993Z,62.89
2023-03-11T09:18:32.885Z,63.46
2023-03-11T09:21:00.833Z,61.58
2023-03-11T09:23:27.731Z,61.58
2023-03-11T09:25:54.688Z,62.32
2023-03-11T09:28:21.735Z,61.92
2023-03-11T09:30:48.672Z,61.90
2023-03-11T09:33:15.716Z,59.80
2023-03-11T09:35:42.620Z,61.67
2023-03-11T09:38:09.532Z,61.25
2023-03-11T09:40:54.617Z,61.12
2023-03-11T09:43:35.738Z,60.88
2023-03-11T09:46:24.388Z,58.19
2023-03-11T09:49:19.301Z,57.75
2023-03-11T09:52:14.071Z,54.56
2023-03-11T09:54:45.446Z,55.76
2023-03-11T09:57:21.375Z,56.03
2023-03-11T09:59:48.905Z,54.37
2023-03-11T10:02:19.543Z,53.73
2023-03-11T10:05:11.910Z,54.78
2023-03-11T10:07:47.304Z,50.57
2023-03-11T10:10:15.197Z,52.09
2023-03-11T10:12:45.516Z,50.27
2023-03-11T10:15:39.396Z,50.86
2023-03-11T10:18:25.333Z,48.83
2023-03-11T10:20:59.772Z,49.77
2023-03-11T10:23:51.496Z,52.54
2023-03-11T10:26:23.283Z,51.69
2023-03-11T10:28:59.629Z,52.30
2023-03-11T10:31:48.717Z,51.67
2023-03-11T10:34:54.852Z,52.23
2023-03-11T10:37:48.885Z,51.34
2023-03-11T10:40:35.388Z,52.23
2023-03-11T10:43:16.433Z,50.28
2023-03-11T10:45:46.379Z,52.39
2023-03-11T10:48:16.711Z,51.66
2023-03-11T10:50:46.899Z,53.91
2023-03-11T10:53:17.270Z,55.54
2023-03-11T10:55:53.437Z,58.82
2023-03-11T10:58:29.523Z,57.64
2023-03-11T11:01:17.603Z,56.96
2023-03-11T11:03:49.214Z,58.10
2023-03-11T11:06:27.311Z,55.71
2023-03-11T11:09:12.706Z,56.23
2023-03-11T11:11:39.889Z,56.51
2023-03-11T11:14:07.489Z,54.73
2023-03-11T11:16:35.336Z,55.85
2023-03-11T11:19:03.997Z,55.09
2023-03-11T11:21:36.991Z,54.30
2023-03-11T11:24:27.310Z,54.07
2023-03-11T11:27:26.577Z,54.93
2023-03-11T11:30:10.537Z,55.31
2023-03-11T11:32:38.014Z,55.05
2023-03-11T11:35:17.193Z,55.32
2023-03-11T11:37:46.564Z,54.60
2023-03-11T11:40:16.856Z,54.27
2023-03-11T11:42:53.010Z,53.39
2023-03-11T11:45:32.776Z,53.36
2023-03-11T11:48:04.695Z,54.04
2023-03-11T11:50:42.107Z,53.67
2023-03-11T11:53:31.084Z,54.31
2023-03-11T11:55:58.386Z,53.52
2023-03-11T11:58:25.469Z,53.75
2023-03-11T12:01:13.519Z,50.85
2023-03-11T12:04:05.304Z,51.58
2023-03-11T12:06:38.360Z,49.37
2023-03-11T12:09:24.371Z,48.81
2023-03-11T12:12:03.219Z,47.53
2023-03-11T12:15:14.709Z,45.65
2023-03-11T12:17:45.068Z,43.32
2023-03-11T12:20:14.671Z,46.72
2023-03-11T12:23:12.733Z,45.78
2023-03-11T12:25:42.242Z,45.05
2023-03-11T12:28:16.036Z,43.08
2023-03-11T12:30:53.312Z,44.79
2023-03-11T12:33:51.105Z,43.99
2023-03-11T12:36:23.989Z,45.47
2023-03-11T12:38:53.893Z,46.72
2023-03-11T12:41:31.919Z,45.76
2023-03-11T12:44:31.697Z,47.26
2023-03-11T12:46:58.906Z,46.24
2023-03-11T12:49:27.915Z,48.54
2023-03-11T12:52:16.201Z,49.25
2023-03-11T12:55:10.532Z,49.48
2023-03-11T12:57:51.476Z,48.88
2023-03-11T13:00:38.970Z,48.11
2023-03-11T13:03:27.167Z,48.44
2023-03-11T13:06:14.322Z,49.19
2023-03-11T13:08:52.382Z,49.26
2023-03-11T13:11:43.732Z,49.25
2023-03-11T13:14:40.355Z,51.70
2023-03-11T13:17:32.489Z,52.93
2023-03-11T13:19:59.934Z,53.76
2023-03-11T13:22:57.388Z,52.80
2023-03-11T13:25:38.865Z,55.91
2023-03-11T13:28:30.141Z,57.13
2023-03-11T13:31:34.740Z,58.06
2023-03-11T13:34:15.087Z,61.42
2023-03-11T13:37:06.874Z,64.05
2023-03-11T13:39:44.770Z,67.01
2023-03-11T13:42:37.591Z,69.06
2023-03-11T13:45:12.830Z,71.69
2023-03-11T13:47:45.879Z,73.62
2023-03-11T13:50:25.983Z,75.13
2023-03-11T13:52:54.979Z,75.98
2023-03-11T13:55:28.403Z,77.31
2023-03-11T13:57:57.440Z,78.01
2023-03-11T14:00:28.598Z,78.16
2023-03-11T14:03:12.060Z,77.99
2023-03-11T14:05:46.254Z,78.47
2023-03-11T14:08:27.467Z,78.62
2023-03-11T14:10:59.865Z,78.40
2023-03-11T14:13:32.961Z,78.94
2023-03-11T14:16:00.401Z,78.62
2023-03-11T14:18:34.281Z,78.88
2023-03-11T14:21:02.702Z,78.36
2023-03-11T14:23:39.847Z,78.65
2023-03-11T14:26:13.681Z,79.11
2023-03-11T14:28:45.094Z,79.61
2023-03-11T14:31:31.243Z,79.68
2023-03-11T14:34:14.304Z,77.65
2023-03-11T14:36:51.035Z,76.44
2023-03-11T14:39:38.235Z,75.62
2023-03-11T14:42:08.452Z,75.00
2023-03-11T14:44:40.983Z,75.00
2023-03-11T14:47:17.189Z,74.73
2023-03-11T14:49:44.657Z,74.48
2023-03-11T14:52:37.736Z,75.13
2023-03-11T14:55:12.203Z,76.02
2023-03-11T14:58:01.915Z,77.49
2023-03-11T15:00:34.222Z,77.27
2023-03-11T15:03:25.282Z,78.65
2023-03-11T15:05:59.718Z,80.24
2023-03-11T15:08:31.039Z,82.71
2023-03-11T15:11:03.220Z,83.77
2023-03-11T15:13:31.008Z,85.08
2023-03-11T15:16:00.322Z,85.98
2023-03-11T15:18:37.342Z,86.49
2023-03-11T15:21:13.904Z,87.72
2023-03-11T15:23:46.436Z,87.71
2023-03-11T15:26:26.014Z,88.31
2023-03-11T15:29:01.821Z,89.02
2023-03-11T15:31:32.191Z,89.37
2023-03-11T15:34:12.213Z,89.97
2023-03-11T15:36:45.655Z,89.88
2023-03-11T15:39:14.918Z,90.19
2023-03-11T15:41:42.785Z,90.90
2023-03-11T15:44:24.388Z,91.57
2023-03-11T15:46:51.811Z,91.88
2023-03-11T15:49:19.123Z,92.18
2023-03-11T15:51:46.755Z,92.74
2023-03-11T15:54:13.784Z,92.86
2023-03-11T15:56:41.220Z,93.79
2023-03-11T15:59:14.101Z,94.40
2023-03-11T16:01:42.518Z,93.76
2023-03-11T16:04:15.255Z,93.53
2023-03-11T16:06:43.108Z,93.34
2023-03-11T16:09:13.104Z,93.78
2023-03-11T16:11:41.249Z,92.80
2023-03-11T16:14:20.318Z,93.27
2023-03-11T16:16:47.626Z,92.78
2023-03-11T16:19:14.485Z,93.51
2023-03-11T16:21:47.051Z,94.37
2023-03-11T16:24:20.648Z,94.96
2023-03-11T16:26:48.269Z,94.12
2023-03-11T16:29:19.681Z,94.37
2023-03-11T16:31:47.292Z,94.27
2023-03-11T16:34:14.158Z,94.67
2023-03-11T16:36:41.209Z,92.83
2023-03-11T16:39:08.082Z,93.28
2023-03-11T16:41:43.765Z,92.62
2023-03-11T16:44:11.285Z,91.74
2023-03-11T16:46:38.463Z,92.77
2023-03-11T16:49:06.045Z,91.04
2023-03-11T16:51:33.440Z,91.95
2023-03-11T16:54:00.650Z,91.16
2023-03-11T16:56:27.551Z,90.81
2023-03-11T16:58:54.860Z,90.31
2023-03-11T17:01:22.343Z,91.44
2023-03-11T17:03:50.887Z,90.43
2023-03-11T17:06:18.882Z,89.72
2023-03-11T17:08:49.135Z,89.96
2023-03-11T17:11:21.219Z,89.82
2023-03-11T17:13:48.792Z,88.48
2023-03-11T17:16:15.937Z,89.00
2023-03-11T17:18:43.062Z,89.51
2023-03-11T17:21:12.770Z,90.07
2023-03-11T17:23:40.137Z,88.45
2023-03-11T17:26:12.750Z,89.26
2023-03-11T17:28:40.637Z,88.09
2023-03-11T17:31:17.702Z,86.56
2023-03-11T17:33:45.811Z,86.91
2023-03-11T17:36:16.032Z,86.57
2023-03-11T17:38:44.362Z,86.44
2023-03-11T17:41:14.837Z,86.63
2023-03-11T17:43:42.617Z,86.52
2023-03-11T17:46:12.391Z,86.22
2023-03-11T17:48:39.351Z,86.49
2023-03-11T17:51:12.251Z,85.06
2023-03-11T17:53:40.885Z,85.94
2023-03-11T17:56:08.340Z,86.25
2023-03-11T17:58:35.644Z,86.72
2023-03-11T18:01:04.974Z,86.37
2023-03-11T18:03:31.964Z,87.03
2023-03-11T18:06:01.916Z,86.77
2023-03-11T18:08:29.637Z,87.32
2023-03-11T18:11:02.138Z,87.12
2023-03-11T18:13:29.754Z,88.22
2023-03-11T18:16:08.869Z,88.63
2023-03-11T18:18:36.480Z,89.19
2023-03-11T18:21:05.379Z,89.96
2023-03-11T18:23:33.229Z,90.51
2023-03-11T18:26:01.910Z,90.61
2023-03-11T18:28:29.325Z,91.03
2023-03-11T18:30:56.223Z,91.03
2023-03-11T18:33:24.791Z,90.96
2023-03-11T18:35:51.789Z,90.93
2023-03-11T18:38:19.711Z,90.15
2023-03-11T18:40:46.825Z,88.99
2023-03-11T18:43:14.725Z,88.42
2023-03-11T18:45:41.691Z,88.77
2023-03-11T18:48:08.613Z,87.56
2023-03-11T18:50:35.551Z,88.08
2023-03-11T18:53:02.527Z,88.53
2023-03-11T18:55:29.459Z,88.39
2023-03-11T18:57:56.321Z,87.97
2023-03-11T19:00:23.716Z,88.12
2023-03-11T19:02:52.422Z,88.04
2023-03-11T19:05:21.215Z,87.19
2023-03-11T19:07:48.115Z,85.52
2023-03-11T19:10:17.961Z,86.34
2023-03-11T19:12:45.354Z,86.01
2023-03-11T19:15:12.982Z,86.58
2023-03-11T19:17:40.075Z,84.70
2023-03-11T19:20:08.821Z,84.67
2023-03-11T19:22:36.675Z,85.79
2023-03-11T19:25:04.692Z,85.64
2023-03-11T19:27:32.108Z,85.26
2023-03-11T19:29:59.448Z,85.12
2023-03-11T19:32:26.356Z,85.79
2023-03-11T19:34:53.413Z,85.79
2023-03-11T19:37:20.539Z,85.09
2023-03-11T19:39:47.473Z,85.69
2023-03-11T19:42:14.523Z,86.11
2023-03-11T19:44:41.779Z,85.94
2023-03-11T19:47:09.123Z,85.17
2023-03-11T19:49:36.018Z,85.74
2023-03-11T19:52:03.136Z,85.52
2023-03-11T19:54:30.085Z,85.53
2023-03-11T19:56:57.084Z,84.84
2023-03-11T19:59:24.120Z,84.17
2023-03-11T20:01:51.322Z,82.95
2023-03-11T20:04:18.318Z,82.17
2023-03-11T20:06:46.037Z,81.91
2023-03-11T20:09:15.535Z,82.38
2023-03-11T20:11:42.674Z,81.94
2023-03-11T20:14:11.160Z,81.48
2023-03-11T20:16:38.584Z,81.63
2023-03-11T20:19:06.363Z,80.50
2023-03-11T20:21:39.024Z,80.77
2023-03-11T20:24:06.912Z,80.66
2023-03-11T20:26:34.199Z,80.68
2023-03-11T20:29:01.166Z,79.38
2023-03-11T20:31:30.656Z,78.95
2023-03-11T20:33:58.638Z,79.67
2023-03-11T20:36:28.376Z,79.97
2023-03-11T20:38:56.145Z,80.17
2023-03-11T20:41:24.926Z,80.76
2023-03-11T20:43:53.341Z,80.24
2023-03-11T20:46:20.517Z,80.54
2023-03-11T20:48:48.016Z,80.86
2023-03-11T20:51:20.413Z,80.01
2023-03-11T20:53:49.052Z,79.92
2023-03-11T20:56:19.917Z,79.95
2023-03-11T20:58:48.778Z,79.83
2023-03-11T21:01:28.633Z,80.15
2023-03-11T21:03:58.601Z,79.89
2023-03-11T21:06:31.627Z,80.52
2023-03-11T21:09:00.851Z,80.27
2023-03-11T21:11:28.466Z,79.49
2023-03-11T21:13:55.648Z,77.35
2023-03-11T21:16:23.783Z,78.05
2023-03-11T21:18:50.718Z,77.59
2023-03-11T21:21:18.903Z,77.52
2023-03-11T21:23:46.389Z,77.76
2023-03-11T21:26:15.339Z,77.53
2023-03-11T21:28:46.740Z,77.06
2023-03-11T21:31:23.146Z,77.17
2023-03-11T21:33:55.121Z,76.71
2023-03-11T21:36:22.309Z,76.79
2023-03-11T21:38:50.353Z,75.49
2023-03-11T21:41:18.531Z,75.37
2023-03-11T21:43:46.466Z,76.13
2023-03-11T21:46:16.974Z,76.11
2023-03-11T21:48:44.294Z,75.73
2023-03-11T21:51:11.706Z,75.44
2023-03-11T21:53:38.817Z,75.01
2023-03-11T21:56:06.357Z,74.70
2023-03-11T21:58:33.959Z,74.11
2023-03-11T22:01:01.769Z,74.50
2023-03-11T22:03:29.272Z,73.80
2023-03-11T22:06:00.826Z,73.87
2023-03-11T22:08:28.791Z,73.34
2023-03-11T22:10:56.133Z,72.62
2023-03-11T22:13:23.964Z,72.89
2023-03-11T22:15:51.149Z,71.44
2023-03-11T22:18:18.274Z,71.24
2023-03-11T22:20:45.404Z,70.64
2023-03-11T22:23:12.427Z,70.22
2023-03-11T22:25:39.427Z,70.75
2023-03-11T22:28:06.488Z,70.77
2023-03-11T22:30:34.564Z,69.58
2023-03-11T22:33:01.545Z,68.40
2023-03-11T22:35:28.577Z,68.08
2023-03-11T22:37:55.499Z,67.26
2023-03-11T22:40:22.461Z,67.33
2023-03-11T22:42:49.506Z,68.62
2023-03-11T22:45:16.558Z,68.22
2023-03-11T22:47:43.557Z,68.55
2023-03-11T22:50:10.973Z,68.29
2023-03-11T22:52:38.074Z,68.70
2023-03-11T22:55:05.369Z,68.44
2023-03-11T22:57:38.632Z,68.90
2023-03-11T23:00:17.120Z,69.59
2023-03-11T23:02:45.603Z,69.54
2023-03-11T23:05:13.772Z,70.36
2023-03-11T23:07:41.997Z,69.33
2023-03-11T23:10:12.169Z,69.90
2023-03-11T23:12:40.956Z,70.34
2023-03-11T23:15:11.955Z,71.67
2023-03-11T23:17:39.255Z,71.02
2023-03-11T23:20:08.222Z,71.53
2023-03-11T23:22:36.077Z,71.88
2023-03-11T23:25:06.298Z,71.93
2023-03-11T23:27:33.409Z,71.51
2023-03-11T23:30:00.310Z,71.50
2023-03-11T23:32:27.417Z,71.14
2023-03-11T23:34:54.470Z,70.94
2023-03-11T23:37:21.419Z,71.33
2023-03-11T23:39:48.504Z,71.01
2023-03-11T23:42:25.325Z,71.70
2023-03-11T23:44:53.920Z,71.37
2023-03-11T23:47:21.125Z,70.81
2023-03-11T23:49:48.134Z,71.12
2023-03-11T23:52:15.104Z,71.11
2023-03-11T23:54:42.234Z,70.88
2023-03-11T23:57:09.276Z,71.36
2023-03-11T23:59:36.288Z,70.70
